sensor_id;sensor_type;location;lat;lon;timestamp;P1;durP1;ratioP1;P2;durP2;ratioP2
23578;SDS011;11967;50.852;4.400;2024-02-21T00:01:39;33.03;;;10.35;;
23578;SDS011;11967;50.852;4.400;2024-02-21T00:04:04;26.02;;;9.85;;
23578;SDS011;11967;50.852;4.400;2024-02-21T00:06:30;28.80;;;9.75;;
23578;SDS011;11967;50.852;4.400;2024-02-21T00:08:56;29.50;;;10.25;;
23578;SDS011;11967;50.852;4.400;2024-02-21T00:11:22;33.45;;;9.93;;
23578;SDS011;11967;50.852;4.400;2024-02-21T00:13:47;30.58;;;10.68;;
23578;SDS011;11967;50.852;4.400;2024-02-21T00:16:13;27.13;;;10.23;;
23578;SDS011;11967;50.852;4.400;2024-02-21T00:18:40;33.72;;;10.45;;
23578;SDS011;11967;50.852;4.400;2024-02-21T00:21:06;27.23;;;10.23;;
23578;SDS011;11967;50.852;4.400;2024-02-21T00:23:32;27.83;;;9.95;;
23578;SDS011;11967;50.852;4.400;2024-02-21T00:25:57;21.52;;;9.10;;
23578;SDS011;11967;50.852;4.400;2024-02-21T00:28:23;29.15;;;9.85;;
23578;SDS011;11967;50.852;4.400;2024-02-21T00:30:48;27.80;;;8.82;;
23578;SDS011;11967;50.852;4.400;2024-02-21T00:33:16;21.90;;;8.70;;
23578;SDS011;11967;50.852;4.400;2024-02-21T00:35:42;23.98;;;8.50;;
23578;SDS011;11967;50.852;4.400;2024-02-21T00:38:07;24.17;;;8.50;;
23578;SDS011;11967;50.852;4.400;2024-02-21T00:40:33;19.08;;;7.55;;
23578;SDS011;11967;50.852;4.400;2024-02-21T00:43:00;26.48;;;7.78;;
23578;SDS011;11967;50.852;4.400;2024-02-21T00:45:25;25.30;;;8.40;;
23578;SDS011;11967;50.852;4.400;2024-02-21T00:47:51;24.75;;;8.57;;
23578;SDS011;11967;50.852;4.400;2024-02-21T00:50:16;26.85;;;8.02;;
23578;SDS011;11967;50.852;4.400;2024-02-21T00:52:42;23.75;;;7.88;;
23578;SDS011;11967;50.852;4.400;2024-02-21T00:55:08;21.73;;;8.40;;
23578;SDS011;11967;50.852;4.400;2024-02-21T00:57:34;21.70;;;7.85;;
23578;SDS011;11967;50.852;4.400;2024-02-21T01:00:00;20.58;;;7.53;;
23578;SDS011;11967;50.852;4.400;2024-02-21T01:02:26;19.33;;;7.75;;
23578;SDS011;11967;50.852;4.400;2024-02-21T01:04:52;21.10;;;8.07;;
23578;SDS011;11967;50.852;4.400;2024-02-21T01:07:18;20.55;;;8.45;;
23578;SDS011;11967;50.852;4.400;2024-02-21T01:09:43;30.42;;;9.80;;
23578;SDS011;11967;50.852;4.400;2024-02-21T01:12:09;24.02;;;9.23;;
23578;SDS011;11967;50.852;4.400;2024-02-21T01:14:34;27.90;;;9.93;;
23578;SDS011;11967;50.852;4.400;2024-02-21T01:17:00;29.27;;;9.95;;
23578;SDS011;11967;50.852;4.400;2024-02-21T01:19:26;21.98;;;8.70;;
23578;SDS011;11967;50.852;4.400;2024-02-21T01:21:52;24.25;;;9.73;;
23578;SDS011;11967;50.852;4.400;2024-02-21T01:24:17;28.67;;;10.02;;
23578;SDS011;11967;50.852;4.400;2024-02-21T01:26:43;26.13;;;9.70;;
23578;SDS011;11967;50.852;4.400;2024-02-21T01:29:09;26.13;;;8.95;;
23578;SDS011;11967;50.852;4.400;2024-02-21T01:31:34;28.73;;;9.32;;
23578;SDS011;11967;50.852;4.400;2024-02-21T01:34:00;21.55;;;9.00;;
23578;SDS011;11967;50.852;4.400;2024-02-21T01:36:25;24.15;;;9.23;;
23578;SDS011;11967;50.852;4.400;2024-02-21T01:38:51;23.80;;;9.55;;
23578;SDS011;11967;50.852;4.400;2024-02-21T01:41:17;24.50;;;9.45;;
23578;SDS011;11967;50.852;4.400;2024-02-21T01:43:43;26.90;;;9.82;;
23578;SDS011;11967;50.852;4.400;2024-02-21T01:46:09;22.90;;;9.57;;
23578;SDS011;11967;50.852;4.400;2024-02-21T01:48:35;25.38;;;9.70;;
23578;SDS011;11967;50.852;4.400;2024-02-21T01:51:01;25.35;;;9.45;;
23578;SDS011;11967;50.852;4.400;2024-02-21T01:53:38;24.15;;;9.63;;
23578;SDS011;11967;50.852;4.400;2024-02-21T01:56:08;28.80;;;10.75;;
23578;SDS011;11967;50.852;4.400;2024-02-21T01:58:35;28.98;;;10.52;;
23578;SDS011;11967;50.852;4.400;2024-02-21T02:01:02;30.05;;;10.68;;
23578;SDS011;11967;50.852;4.400;2024-02-21T02:03:28;29.52;;;10.57;;
23578;SDS011;11967;50.852;4.400;2024-02-21T02:05:55;24.27;;;10.30;;
23578;SDS011;11967;50.852;4.400;2024-02-21T02:08:20;28.42;;;10.27;;
23578;SDS011;11967;50.852;4.400;2024-02-21T02:10:47;27.35;;;11.32;;
23578;SDS011;11967;50.852;4.400;2024-02-21T02:13:13;27.73;;;11.00;;
23578;SDS011;11967;50.852;4.400;2024-02-21T02:15:49;32.47;;;11.70;;
23578;SDS011;11967;50.852;4.400;2024-02-21T02:18:15;31.92;;;11.73;;
23578;SDS011;11967;50.852;4.400;2024-02-21T02:20:43;29.15;;;11.25;;
23578;SDS011;11967;50.852;4.400;2024-02-21T02:23:10;28.10;;;11.18;;
23578;SDS011;11967;50.852;4.400;2024-02-21T02:25:36;25.63;;;10.55;;
23578;SDS011;11967;50.852;4.400;2024-02-21T02:28:03;25.58;;;9.43;;
23578;SDS011;11967;50.852;4.400;2024-02-21T02:30:31;28.90;;;10.82;;
23578;SDS011;11967;50.852;4.400;2024-02-21T02:32:58;21.00;;;10.02;;
23578;SDS011;11967;50.852;4.400;2024-02-21T02:35:24;26.35;;;10.18;;
23578;SDS011;11967;50.852;4.400;2024-02-21T02:37:50;27.02;;;9.50;;
23578;SDS011;11967;50.852;4.400;2024-02-21T02:40:16;24.52;;;10.13;;
23578;SDS011;11967;50.852;4.400;2024-02-21T02:42:43;24.92;;;9.98;;
23578;SDS011;11967;50.852;4.400;2024-02-21T02:45:09;19.65;;;9.05;;
23578;SDS011;11967;50.852;4.400;2024-02-21T02:47:35;25.77;;;9.30;;
23578;SDS011;11967;50.852;4.400;2024-02-21T02:50:00;28.42;;;9.95;;
23578;SDS011;11967;50.852;4.400;2024-02-21T02:52:27;23.73;;;9.65;;
23578;SDS011;11967;50.852;4.400;2024-02-21T02:54:53;26.23;;;9.93;;
23578;SDS011;11967;50.852;4.400;2024-02-21T02:57:21;26.67;;;10.55;;
23578;SDS011;11967;50.852;4.400;2024-02-21T02:59:50;27.15;;;9.98;;
23578;SDS011;11967;50.852;4.400;2024-02-21T03:02:16;24.20;;;10.23;;
23578;SDS011;11967;50.852;4.400;2024-02-21T03:04:42;25.40;;;9.90;;
23578;SDS011;11967;50.852;4.400;2024-02-21T03:07:08;26.40;;;9.85;;
23578;SDS011;11967;50.852;4.400;2024-02-21T03:09:36;27.80;;;9.95;;
23578;SDS011;11967;50.852;4.400;2024-02-21T03:12:04;24.23;;;9.68;;
23578;SDS011;11967;50.852;4.400;2024-02-21T03:14:30;19.90;;;9.45;;
23578;SDS011;11967;50.852;4.400;2024-02-21T03:16:57;27.40;;;9.85;;
23578;SDS011;11967;50.852;4.400;2024-02-21T03:19:24;25.73;;;10.13;;
23578;SDS011;11967;50.852;4.400;2024-02-21T03:21:50;27.08;;;10.18;;
23578;SDS011;11967;50.852;4.400;2024-02-21T03:24:16;22.67;;;9.13;;
23578;SDS011;11967;50.852;4.400;2024-02-21T03:26:42;21.67;;;9.55;;
23578;SDS011;11967;50.852;4.400;2024-02-21T03:29:07;25.30;;;9.15;;
23578;SDS011;11967;50.852;4.400;2024-02-21T03:31:37;24.67;;;10.00;;
23578;SDS011;11967;50.852;4.400;2024-02-21T03:34:02;24.42;;;9.50;;
23578;SDS011;11967;50.852;4.400;2024-02-21T03:36:28;21.83;;;9.85;;
23578;SDS011;11967;50.852;4.400;2024-02-21T03:38:54;23.35;;;9.73;;
23578;SDS011;11967;50.852;4.400;2024-02-21T03:41:20;22.35;;;9.63;;
23578;SDS011;11967;50.852;4.400;2024-02-21T03:43:46;24.98;;;10.07;;
23578;SDS011;11967;50.852;4.400;2024-02-21T03:46:12;27.85;;;10.55;;
23578;SDS011;11967;50.852;4.400;2024-02-21T03:48:38;24.05;;;9.55;;
23578;SDS011;11967;50.852;4.400;2024-02-21T03:51:03;24.15;;;9.85;;
23578;SDS011;11967;50.852;4.400;2024-02-21T03:53:30;24.42;;;9.63;;
23578;SDS011;11967;50.852;4.400;2024-02-21T03:55:56;24.40;;;9.52;;
23578;SDS011;11967;50.852;4.400;2024-02-21T03:58:22;20.73;;;8.57;;
23578;SDS011;11967;50.852;4.400;2024-02-21T04:00:47;20.08;;;9.20;;
23578;SDS011;11967;50.852;4.400;2024-02-21T04:03:13;26.08;;;9.38;;
23578;SDS011;11967;50.852;4.400;2024-02-21T04:05:38;25.35;;;9.93;;
23578;SDS011;11967;50.852;4.400;2024-02-21T04:08:04;20.60;;;9.32;;
23578;SDS011;11967;50.852;4.400;2024-02-21T04:10:30;24.20;;;10.00;;
23578;SDS011;11967;50.852;4.400;2024-02-21T04:12:56;25.60;;;10.00;;
23578;SDS011;11967;50.852;4.400;2024-02-21T04:15:23;24.73;;;10.98;;
23578;SDS011;11967;50.852;4.400;2024-02-21T04:17:48;22.92;;;10.30;;
23578;SDS011;11967;50.852;4.400;2024-02-21T04:20:15;23.70;;;9.85;;
23578;SDS011;11967;50.852;4.400;2024-02-21T04:22:44;24.95;;;9.82;;
23578;SDS011;11967;50.852;4.400;2024-02-21T04:25:10;27.90;;;10.90;;
23578;SDS011;11967;50.852;4.400;2024-02-21T04:27:36;24.77;;;10.18;;
23578;SDS011;11967;50.852;4.400;2024-02-21T04:30:05;27.00;;;11.50;;
23578;SDS011;11967;50.852;4.400;2024-02-21T04:32:32;22.05;;;10.35;;
23578;SDS011;11967;50.852;4.400;2024-02-21T04:34:57;22.83;;;10.60;;
23578;SDS011;11967;50.852;4.400;2024-02-21T04:37:23;21.55;;;10.90;;
23578;SDS011;11967;50.852;4.400;2024-02-21T04:39:49;23.80;;;10.07;;
23578;SDS011;11967;50.852;4.400;2024-02-21T04:42:16;24.33;;;10.02;;
23578;SDS011;11967;50.852;4.400;2024-02-21T04:44:42;23.20;;;10.32;;
23578;SDS011;11967;50.852;4.400;2024-02-21T04:47:08;25.23;;;10.35;;
23578;SDS011;11967;50.852;4.400;2024-02-21T04:49:34;27.35;;;11.02;;
23578;SDS011;11967;50.852;4.400;2024-02-21T04:52:00;23.90;;;9.93;;
23578;SDS011;11967;50.852;4.400;2024-02-21T04:54:26;20.50;;;9.65;;
23578;SDS011;11967;50.852;4.400;2024-02-21T04:56:52;22.77;;;9.95;;
23578;SDS011;11967;50.852;4.400;2024-02-21T04:59:17;23.50;;;10.18;;
23578;SDS011;11967;50.852;4.400;2024-02-21T05:01:43;27.88;;;9.38;;
23578;SDS011;11967;50.852;4.400;2024-02-21T05:04:08;24.17;;;9.85;;
23578;SDS011;11967;50.852;4.400;2024-02-21T05:06:41;22.17;;;9.43;;
23578;SDS011;11967;50.852;4.400;2024-02-21T05:09:07;23.10;;;9.48;;
23578;SDS011;11967;50.852;4.400;2024-02-21T05:11:34;23.77;;;9.40;;
23578;SDS011;11967;50.852;4.400;2024-02-21T05:14:00;22.98;;;9.10;;
23578;SDS011;11967;50.852;4.400;2024-02-21T05:16:26;19.95;;;9.18;;
23578;SDS011;11967;50.852;4.400;2024-02-21T05:18:52;21.13;;;9.55;;
23578;SDS011;11967;50.852;4.400;2024-02-21T05:21:18;19.58;;;9.48;;
23578;SDS011;11967;50.852;4.400;2024-02-21T05:23:44;19.58;;;9.57;;
23578;SDS011;11967;50.852;4.400;2024-02-21T05:26:10;19.70;;;8.90;;
23578;SDS011;11967;50.852;4.400;2024-02-21T05:28:35;20.75;;;9.05;;
23578;SDS011;11967;50.852;4.400;2024-02-21T05:31:01;18.08;;;8.60;;
23578;SDS011;11967;50.852;4.400;2024-02-21T05:33:26;19.00;;;8.50;;
23578;SDS011;11967;50.852;4.400;2024-02-21T05:35:52;18.35;;;8.77;;
23578;SDS011;11967;50.852;4.400;2024-02-21T05:38:18;20.95;;;8.85;;
23578;SDS011;11967;50.852;4.400;2024-02-21T05:40:47;14.77;;;7.72;;
23578;SDS011;11967;50.852;4.400;2024-02-21T05:43:13;20.75;;;8.00;;
23578;SDS011;11967;50.852;4.400;2024-02-21T05:45:38;16.38;;;8.13;;
23578;SDS011;11967;50.852;4.400;2024-02-21T05:48:04;19.60;;;8.40;;
23578;SDS011;11967;50.852;4.400;2024-02-21T05:50:30;17.40;;;8.30;;
23578;SDS011;11967;50.852;4.400;2024-02-21T05:52:57;23.25;;;8.60;;
23578;SDS011;11967;50.852;4.400;2024-02-21T05:55:22;17.85;;;7.68;;
23578;SDS011;11967;50.852;4.400;2024-02-21T05:57:48;14.90;;;7.95;;
23578;SDS011;11967;50.852;4.400;2024-02-21T06:00:14;16.25;;;7.97;;
23578;SDS011;11967;50.852;4.400;2024-02-21T06:02:40;13.77;;;7.32;;
23578;SDS011;11967;50.852;4.400;2024-02-21T06:05:07;16.92;;;7.65;;
23578;SDS011;11967;50.852;4.400;2024-02-21T06:07:33;16.95;;;6.95;;
23578;SDS011;11967;50.852;4.400;2024-02-21T06:10:00;11.73;;;6.35;;
23578;SDS011;11967;50.852;4.400;2024-02-21T06:12:26;13.88;;;6.82;;
23578;SDS011;11967;50.852;4.400;2024-02-21T06:14:52;14.43;;;6.78;;
23578;SDS011;11967;50.852;4.400;2024-02-21T06:17:18;12.95;;;6.13;;
23578;SDS011;11967;50.852;4.400;2024-02-21T06:19:44;11.90;;;6.93;;
23578;SDS011;11967;50.852;4.400;2024-02-21T06:22:10;16.23;;;6.60;;
23578;SDS011;11967;50.852;4.400;2024-02-21T06:24:36;13.50;;;6.55;;
23578;SDS011;11967;50.852;4.400;2024-02-21T06:27:05;13.70;;;6.63;;
23578;SDS011;11967;50.852;4.400;2024-02-21T06:29:34;13.27;;;6.47;;
23578;SDS011;11967;50.852;4.400;2024-02-21T06:32:00;15.40;;;6.53;;
23578;SDS011;11967;50.852;4.400;2024-02-21T06:34:26;11.10;;;6.20;;
23578;SDS011;11967;50.852;4.400;2024-02-21T06:36:52;15.30;;;6.95;;
23578;SDS011;11967;50.852;4.400;2024-02-21T06:39:18;13.63;;;7.13;;
23578;SDS011;11967;50.852;4.400;2024-02-21T06:41:43;12.63;;;7.30;;
23578;SDS011;11967;50.852;4.400;2024-02-21T06:44:09;16.20;;;7.80;;
23578;SDS011;11967;50.852;4.400;2024-02-21T06:46:35;16.65;;;8.20;;
23578;SDS011;11967;50.852;4.400;2024-02-21T06:49:01;18.30;;;8.68;;
23578;SDS011;11967;50.852;4.400;2024-02-21T06:51:29;15.95;;;9.00;;
23578;SDS011;11967;50.852;4.400;2024-02-21T06:53:55;17.27;;;9.18;;
23578;SDS011;11967;50.852;4.400;2024-02-21T06:56:23;16.73;;;9.43;;
23578;SDS011;11967;50.852;4.400;2024-02-21T06:58:54;19.33;;;9.30;;
23578;SDS011;11967;50.852;4.400;2024-02-21T07:01:20;21.52;;;10.57;;
23578;SDS011;11967;50.852;4.400;2024-02-21T07:03:46;16.55;;;10.02;;
23578;SDS011;11967;50.852;4.400;2024-02-21T07:06:11;19.55;;;9.75;;
23578;SDS011;11967;50.852;4.400;2024-02-21T07:08:37;16.55;;;10.00;;
23578;SDS011;11967;50.852;4.400;2024-02-21T07:11:03;22.35;;;11.60;;
23578;SDS011;11967;50.852;4.400;2024-02-21T07:13:29;21.35;;;12.02;;
23578;SDS011;11967;50.852;4.400;2024-02-21T07:15:55;22.05;;;12.55;;
23578;SDS011;11967;50.852;4.400;2024-02-21T07:18:21;25.77;;;12.43;;
23578;SDS011;11967;50.852;4.400;2024-02-21T07:20:46;18.25;;;11.52;;
23578;SDS011;11967;50.852;4.400;2024-02-21T07:23:12;16.23;;;11.13;;
23578;SDS011;11967;50.852;4.400;2024-02-21T07:25:38;18.63;;;10.45;;
23578;SDS011;11967;50.852;4.400;2024-02-21T07:28:04;17.30;;;9.65;;
23578;SDS011;11967;50.852;4.400;2024-02-21T07:30:30;17.65;;;10.25;;
23578;SDS011;11967;50.852;4.400;2024-02-21T07:32:56;18.15;;;9.38;;
23578;SDS011;11967;50.852;4.400;2024-02-21T07:35:21;16.77;;;9.85;;
23578;SDS011;11967;50.852;4.400;2024-02-21T07:37:47;13.40;;;8.55;;
23578;SDS011;11967;50.852;4.400;2024-02-21T07:40:13;15.55;;;9.05;;
23578;SDS011;11967;50.852;4.400;2024-02-21T07:42:39;14.15;;;8.93;;
23578;SDS011;11967;50.852;4.400;2024-02-21T07:45:06;20.08;;;8.77;;
23578;SDS011;11967;50.852;4.400;2024-02-21T07:47:33;15.80;;;8.25;;
23578;SDS011;11967;50.852;4.400;2024-02-21T07:49:59;20.23;;;8.15;;
23578;SDS011;11967;50.852;4.400;2024-02-21T07:52:24;16.95;;;7.57;;
23578;SDS011;11967;50.852;4.400;2024-02-21T07:54:50;13.65;;;7.78;;
23578;SDS011;11967;50.852;4.400;2024-02-21T07:57:16;14.63;;;7.07;;
23578;SDS011;11967;50.852;4.400;2024-02-21T07:59:42;11.40;;;6.70;;
23578;SDS011;11967;50.852;4.400;2024-02-21T08:02:08;16.05;;;6.72;;
23578;SDS011;11967;50.852;4.400;2024-02-21T08:04:34;13.05;;;6.53;;
23578;SDS011;11967;50.852;4.400;2024-02-21T08:06:59;16.48;;;7.25;;
23578;SDS011;11967;50.852;4.400;2024-02-21T08:09:43;14.88;;;6.93;;
23578;SDS011;11967;50.852;4.400;2024-02-21T08:12:09;14.68;;;6.80;;
23578;SDS011;11967;50.852;4.400;2024-02-21T08:14:35;13.38;;;6.72;;
23578;SDS011;11967;50.852;4.400;2024-02-21T08:17:01;16.08;;;6.70;;
23578;SDS011;11967;50.852;4.400;2024-02-21T08:19:26;14.93;;;6.75;;
23578;SDS011;11967;50.852;4.400;2024-02-21T08:21:53;14.77;;;7.03;;
23578;SDS011;11967;50.852;4.400;2024-02-21T08:24:19;22.30;;;7.68;;
23578;SDS011;11967;50.852;4.400;2024-02-21T08:26:45;15.50;;;7.35;;
23578;SDS011;11967;50.852;4.400;2024-02-21T08:29:11;17.20;;;7.50;;
23578;SDS011;11967;50.852;4.400;2024-02-21T08:31:37;12.07;;;7.00;;
23578;SDS011;11967;50.852;4.400;2024-02-21T08:34:03;12.27;;;7.25;;
23578;SDS011;11967;50.852;4.400;2024-02-21T08:36:33;14.80;;;7.22;;
23578;SDS011;11967;50.852;4.400;2024-02-21T08:38:59;16.27;;;6.78;;
23578;SDS011;11967;50.852;4.400;2024-02-21T08:41:26;14.35;;;6.78;;
23578;SDS011;11967;50.852;4.400;2024-02-21T08:43:52;15.52;;;6.45;;
23578;SDS011;11967;50.852;4.400;2024-02-21T08:46:22;13.82;;;6.13;;
23578;SDS011;11967;50.852;4.400;2024-02-21T08:48:49;12.00;;;5.75;;
23578;SDS011;11967;50.852;4.400;2024-02-21T08:51:16;16.55;;;6.32;;
23578;SDS011;11967;50.852;4.400;2024-02-21T08:53:42;15.48;;;6.38;;
23578;SDS011;11967;50.852;4.400;2024-02-21T08:56:09;12.45;;;5.78;;
23578;SDS011;11967;50.852;4.400;2024-02-21T08:58:35;18.13;;;6.82;;
23578;SDS011;11967;50.852;4.400;2024-02-21T09:01:02;15.48;;;5.70;;
23578;SDS011;11967;50.852;4.400;2024-02-21T09:03:34;14.73;;;5.40;;
23578;SDS011;11967;50.852;4.400;2024-02-21T09:06:04;11.40;;;5.05;;
23578;SDS011;11967;50.852;4.400;2024-02-21T09:08:30;15.60;;;5.95;;
23578;SDS011;11967;50.852;4.400;2024-02-21T09:10:56;11.63;;;5.20;;
23578;SDS011;11967;50.852;4.400;2024-02-21T09:13:21;12.07;;;5.30;;
23578;SDS011;11967;50.852;4.400;2024-02-21T09:15:48;16.05;;;5.35;;
23578;SDS011;11967;50.852;4.400;2024-02-21T09:18:15;9.85;;;5.38;;
23578;SDS011;11967;50.852;4.400;2024-02-21T09:20:41;17.13;;;5.25;;
23578;SDS011;11967;50.852;4.400;2024-02-21T09:23:07;14.50;;;5.68;;
23578;SDS011;11967;50.852;4.400;2024-02-21T09:25:33;15.45;;;5.55;;
23578;SDS011;11967;50.852;4.400;2024-02-21T09:28:00;12.20;;;5.10;;
23578;SDS011;11967;50.852;4.400;2024-02-21T09:30:26;12.45;;;5.32;;
23578;SDS011;11967;50.852;4.400;2024-02-21T09:32:52;10.88;;;4.93;;
23578;SDS011;11967;50.852;4.400;2024-02-21T09:35:18;9.98;;;4.78;;
23578;SDS011;11967;50.852;4.400;2024-02-21T09:37:43;11.90;;;5.43;;
23578;SDS011;11967;50.852;4.400;2024-02-21T09:40:09;12.80;;;5.55;;
23578;SDS011;11967;50.852;4.400;2024-02-21T09:42:41;12.60;;;5.50;;
23578;SDS011;11967;50.852;4.400;2024-02-21T09:45:08;12.18;;;4.80;;
23578;SDS011;11967;50.852;4.400;2024-02-21T09:48:25;13.02;;;5.15;;
23578;SDS011;11967;50.852;4.400;2024-02-21T09:50:47;9.75;;;5.03;;
23578;SDS011;11967;50.852;4.400;2024-02-21T09:53:15;12.10;;;4.75;;
23578;SDS011;11967;50.852;4.400;2024-02-21T09:55:41;11.45;;;4.90;;
23578;SDS011;11967;50.852;4.400;2024-02-21T09:58:09;13.23;;;4.72;;
23578;SDS011;11967;50.852;4.400;2024-02-21T10:00:37;11.35;;;4.55;;
23578;SDS011;11967;50.852;4.400;2024-02-21T10:03:03;13.40;;;4.68;;
23578;SDS011;11967;50.852;4.400;2024-02-21T10:05:34;9.05;;;4.30;;
23578;SDS011;11967;50.852;4.400;2024-02-21T10:08:00;11.23;;;3.80;;
23578;SDS011;11967;50.852;4.400;2024-02-21T10:10:28;15.48;;;4.35;;
23578;SDS011;11967;50.852;4.400;2024-02-21T10:12:55;10.93;;;4.25;;
23578;SDS011;11967;50.852;4.400;2024-02-21T10:15:21;9.75;;;4.40;;
23578;SDS011;11967;50.852;4.400;2024-02-21T10:17:49;10.80;;;4.22;;
23578;SDS011;11967;50.852;4.400;2024-02-21T10:20:23;12.00;;;4.47;;
23578;SDS011;11967;50.852;4.400;2024-02-21T10:22:48;14.05;;;4.18;;
23578;SDS011;11967;50.852;4.400;2024-02-21T10:25:14;11.90;;;4.20;;
23578;SDS011;11967;50.852;4.400;2024-02-21T10:27:40;16.30;;;4.15;;
23578;SDS011;11967;50.852;4.400;2024-02-21T10:32:32;13.45;;;5.10;;
23578;SDS011;11967;50.852;4.400;2024-02-21T10:35:04;13.45;;;4.70;;
23578;SDS011;11967;50.852;4.400;2024-02-21T10:37:30;13.35;;;4.78;;
23578;SDS011;11967;50.852;4.400;2024-02-21T10:40:00;12.10;;;4.35;;
23578;SDS011;11967;50.852;4.400;2024-02-21T10:42:28;11.25;;;4.72;;
23578;SDS011;11967;50.852;4.400;2024-02-21T10:45:00;13.95;;;4.50;;
23578;SDS011;11967;50.852;4.400;2024-02-21T10:47:29;9.60;;;4.32;;
23578;SDS011;11967;50.852;4.400;2024-02-21T10:49:57;14.52;;;4.68;;
23578;SDS011;11967;50.852;4.400;2024-02-21T10:55:03;13.27;;;4.15;;
23578;SDS011;11967;50.852;4.400;2024-02-21T10:57:31;12.82;;;4.88;;
23578;SDS011;11967;50.852;4.400;2024-02-21T10:59:58;10.82;;;4.05;;
23578;SDS011;11967;50.852;4.400;2024-02-21T11:02:24;13.23;;;4.53;;
23578;SDS011;11967;50.852;4.400;2024-02-21T11:04:54;12.70;;;4.50;;
23578;SDS011;11967;50.852;4.400;2024-02-21T11:07:21;13.07;;;4.00;;
23578;SDS011;11967;50.852;4.400;2024-02-21T11:09:50;12.95;;;4.43;;
23578;SDS011;11967;50.852;4.400;2024-02-21T11:12:19;16.65;;;4.63;;
23578;SDS011;11967;50.852;4.400;2024-02-21T11:14:46;10.30;;;3.80;;
23578;SDS011;11967;50.852;4.400;2024-02-21T11:17:18;12.13;;;4.00;;
23578;SDS011;11967;50.852;4.400;2024-02-21T11:19:46;17.58;;;3.53;;
23578;SDS011;11967;50.852;4.400;2024-02-21T11:22:18;9.32;;;3.60;;
23578;SDS011;11967;50.852;4.400;2024-02-21T11:24:47;12.25;;;4.18;;
23578;SDS011;11967;50.852;4.400;2024-02-21T11:29:54;12.57;;;4.25;;
23578;SDS011;11967;50.852;4.400;2024-02-21T11:32:21;11.17;;;3.57;;
23578;SDS011;11967;50.852;4.400;2024-02-21T11:37:27;13.40;;;4.40;;
23578;SDS011;11967;50.852;4.400;2024-02-21T11:40:06;9.30;;;3.63;;
23578;SDS011;11967;50.852;4.400;2024-02-21T11:42:35;11.52;;;4.40;;
23578;SDS011;11967;50.852;4.400;2024-02-21T11:45:00;11.75;;;4.10;;
23578;SDS011;11967;50.852;4.400;2024-02-21T11:47:28;10.68;;;4.32;;
23578;SDS011;11967;50.852;4.400;2024-02-21T11:49:54;9.60;;;3.97;;
23578;SDS011;11967;50.852;4.400;2024-02-21T11:52:23;10.73;;;3.92;;
23578;SDS011;11967;50.852;4.400;2024-02-21T11:54:51;10.63;;;4.60;;
23578;SDS011;11967;50.852;4.400;2024-02-21T11:57:18;11.55;;;3.97;;
23578;SDS011;11967;50.852;4.400;2024-02-21T11:59:45;11.82;;;4.22;;
23578;SDS011;11967;50.852;4.400;2024-02-21T12:02:12;12.55;;;4.07;;
23578;SDS011;11967;50.852;4.400;2024-02-21T12:04:39;12.32;;;4.90;;
23578;SDS011;11967;50.852;4.400;2024-02-21T12:07:05;11.18;;;4.07;;
23578;SDS011;11967;50.852;4.400;2024-02-21T12:09:31;16.83;;;4.47;;
23578;SDS011;11967;50.852;4.400;2024-02-21T12:12:03;14.70;;;4.70;;
23578;SDS011;11967;50.852;4.400;2024-02-21T12:14:30;12.35;;;4.50;;
23578;SDS011;11967;50.852;4.400;2024-02-21T12:16:57;11.95;;;4.53;;
23578;SDS011;11967;50.852;4.400;2024-02-21T12:19:28;13.30;;;4.35;;
23578;SDS011;11967;50.852;4.400;2024-02-21T12:21:55;13.25;;;4.50;;
23578;SDS011;11967;50.852;4.400;2024-02-21T12:24:25;11.75;;;4.75;;
23578;SDS011;11967;50.852;4.400;2024-02-21T12:26:54;11.07;;;4.97;;
23578;SDS011;11967;50.852;4.400;2024-02-21T12:29:21;15.43;;;4.78;;
23578;SDS011;11967;50.852;4.400;2024-02-21T12:31:49;12.77;;;4.75;;
23578;SDS011;11967;50.852;4.400;2024-02-21T12:34:15;14.35;;;5.18;;
23578;SDS011;11967;50.852;4.400;2024-02-21T12:36:41;14.88;;;4.90;;
23578;SDS011;11967;50.852;4.400;2024-02-21T12:39:13;16.52;;;4.43;;
23578;SDS011;11967;50.852;4.400;2024-02-21T12:41:39;12.40;;;5.40;;
23578;SDS011;11967;50.852;4.400;2024-02-21T12:44:09;16.38;;;5.43;;
23578;SDS011;11967;50.852;4.400;2024-02-21T12:46:36;12.70;;;4.95;;
23578;SDS011;11967;50.852;4.400;2024-02-21T12:49:02;15.80;;;5.53;;
23578;SDS011;11967;50.852;4.400;2024-02-21T12:51:29;11.88;;;4.75;;
23578;SDS011;11967;50.852;4.400;2024-02-21T12:53:55;13.65;;;4.80;;
23578;SDS011;11967;50.852;4.400;2024-02-21T12:56:21;13.60;;;4.40;;
23578;SDS011;11967;50.852;4.400;2024-02-21T12:58:47;11.55;;;4.40;;
23578;SDS011;11967;50.852;4.400;2024-02-21T13:01:13;9.23;;;4.55;;
23578;SDS011;11967;50.852;4.400;2024-02-21T13:03:38;13.30;;;4.60;;
23578;SDS011;11967;50.852;4.400;2024-02-21T13:06:04;17.80;;;4.65;;
23578;SDS011;11967;50.852;4.400;2024-02-21T13:08:32;11.27;;;4.75;;
23578;SDS011;11967;50.852;4.400;2024-02-21T13:10:59;15.93;;;5.10;;
23578;SDS011;11967;50.852;4.400;2024-02-21T13:13:25;13.85;;;5.65;;
23578;SDS011;11967;50.852;4.400;2024-02-21T13:15:51;12.68;;;4.57;;
23578;SDS011;11967;50.852;4.400;2024-02-21T13:18:17;15.00;;;5.47;;
23578;SDS011;11967;50.852;4.400;2024-02-21T13:20:43;14.85;;;4.88;;
23578;SDS011;11967;50.852;4.400;2024-02-21T13:23:08;13.63;;;5.00;;
23578;SDS011;11967;50.852;4.400;2024-02-21T13:25:34;10.75;;;4.55;;
23578;SDS011;11967;50.852;4.400;2024-02-21T13:28:00;13.23;;;5.18;;
23578;SDS011;11967;50.852;4.400;2024-02-21T13:30:26;13.63;;;4.93;;
23578;SDS011;11967;50.852;4.400;2024-02-21T13:32:52;9.95;;;5.13;;
23578;SDS011;11967;50.852;4.400;2024-02-21T13:35:20;13.02;;;5.55;;
23578;SDS011;11967;50.852;4.400;2024-02-21T13:37:46;10.25;;;4.93;;
23578;SDS011;11967;50.852;4.400;2024-02-21T13:40:11;10.13;;;4.80;;
23578;SDS011;11967;50.852;4.400;2024-02-21T13:42:38;14.70;;;5.85;;
23578;SDS011;11967;50.852;4.400;2024-02-21T13:45:05;13.38;;;5.18;;
23578;SDS011;11967;50.852;4.400;2024-02-21T13:47:35;16.42;;;5.65;;
23578;SDS011;11967;50.852;4.400;2024-02-21T13:50:06;13.80;;;5.22;;
23578;SDS011;11967;50.852;4.400;2024-02-21T13:52:39;13.75;;;5.35;;
23578;SDS011;11967;50.852;4.400;2024-02-21T13:55:05;15.75;;;5.53;;
23578;SDS011;11967;50.852;4.400;2024-02-21T13:57:34;12.25;;;5.32;;
23578;SDS011;11967;50.852;4.400;2024-02-21T14:00:01;10.35;;;4.97;;
23578;SDS011;11967;50.852;4.400;2024-02-21T14:02:29;11.07;;;5.18;;
23578;SDS011;11967;50.852;4.400;2024-02-21T14:04:55;12.13;;;5.05;;
23578;SDS011;11967;50.852;4.400;2024-02-21T14:07:21;13.90;;;5.75;;
23578;SDS011;11967;50.852;4.400;2024-02-21T14:09:47;11.40;;;4.80;;
23578;SDS011;11967;50.852;4.400;2024-02-21T14:12:12;14.32;;;5.38;;
23578;SDS011;11967;50.852;4.400;2024-02-21T14:14:38;13.63;;;5.45;;
23578;SDS011;11967;50.852;4.400;2024-02-21T14:17:04;13.32;;;5.13;;
23578;SDS011;11967;50.852;4.400;2024-02-21T14:19:31;16.08;;;5.75;;
23578;SDS011;11967;50.852;4.400;2024-02-21T14:21:56;14.52;;;4.93;;
23578;SDS011;11967;50.852;4.400;2024-02-21T14:24:25;12.43;;;5.80;;
23578;SDS011;11967;50.852;4.400;2024-02-21T14:26:52;12.00;;;5.07;;
23578;SDS011;11967;50.852;4.400;2024-02-21T14:29:18;14.38;;;5.45;;
23578;SDS011;11967;50.852;4.400;2024-02-21T14:31:44;11.88;;;5.47;;
23578;SDS011;11967;50.852;4.400;2024-02-21T14:34:09;11.50;;;5.28;;
23578;SDS011;11967;50.852;4.400;2024-02-21T14:36:35;12.30;;;5.10;;
23578;SDS011;11967;50.852;4.400;2024-02-21T14:39:02;11.93;;;5.32;;
23578;SDS011;11967;50.852;4.400;2024-02-21T14:41:29;12.40;;;5.32;;